Time;durP1;ratioP1;P1;durP2;ratioP2;P2;SDS_P1;SDS_P2;PMS_P1;PMS_P2;Temp;Humidity;BMP_temperature;BMP_pressure;BME280_temperature;BME280_humidity;BME280_pressure;Samples;Min_cycle;Max_cycle;Signal;HPM_P1;HPM_P2
2021/07/23 00:01:35;;;;;;;0.50;0.50;;;;;;;;;;5017204;28;20045;-73
2021/07/23 00:04:01;;;;;;;2.10;1.05;;;;;;;;;;5017264;28;20045;-73
2021/07/23 00:06:27;;;;;;;0.20;0.20;;;;;;;;;;5016343;28;20367;-73
2021/07/23 00:08:53;;;;;;;0.30;0.30;;;;;;;;;;5017341;28;20038;-73
2021/07/23 00:11:19;;;;;;;3.03;0.77;;;;;;;;;;5017923;28;20077;-73
2021/07/23 00:13:47;;;;;;;0.70;0.52;;;;;;;;;;5017025;28;20065;-73
2021/07/23 00:16:13;;;;;;;0.43;0.43;;;;;;;;;;5017104;28;20037;-73
2021/07/23 00:18:39;;;;;;;0.40;0.40;;;;;;;;;;5016878;28;20099;-73
2021/07/23 00:21:05;;;;;;;0.25;0.25;;;;;;;;;;5016481;28;20041;-73
2021/07/23 00:23:31;;;;;;;0.50;0.50;;;;;;;;;;5016737;28;20045;-73
2021/07/23 00:25:57;;;;;;;0.25;0.25;;;;;;;;;;5017583;28;20040;-73
2021/07/23 00:28:23;;;;;;;0.30;0.30;;;;;;;;;;5016545;28;20526;-73
2021/07/23 00:30:49;;;;;;;0.20;0.20;;;;;;;;;;5017013;28;20186;-73
2021/07/23 00:33:15;;;;;;;0.20;0.20;;;;;;;;;;5016813;28;20121;-73
2021/07/23 00:35:42;;;;;;;0.17;0.17;;;;;;;;;;5016526;28;20064;-73
2021/07/23 00:38:08;;;;;;;0.22;0.22;;;;;;;;;;5016654;28;20083;-73
2021/07/23 00:40:34;;;;;;;0.30;0.30;;;;;;;;;;5017298;28;20125;-73
2021/07/23 00:43:00;;;;;;;0.32;0.32;;;;;;;;;;5016696;28;20045;-73
2021/07/23 00:45:27;;;;;;;0.52;0.52;;;;;;;;;;5016651;28;20058;-73
2021/07/23 00:48:01;;;;;;;0.20;0.20;;;;;;;;;;5016067;28;20129;-73
2021/07/23 00:50:28;;;;;;;0.88;0.55;;;;;;;;;;5016328;28;20045;-73
2021/07/23 00:52:54;;;;;;;0.52;0.52;;;;;;;;;;5016502;28;20041;-73
2021/07/23 00:55:20;;;;;;;0.65;0.30;;;;;;;;;;5017230;28;20063;-73
2021/07/23 00:57:47;;;;;;;0.17;0.17;;;;;;;;;;5016443;28;20053;-73
2021/07/23 01:00:13;;;;;;;0.30;0.30;;;;;;;;;;5016741;28;20046;-73
2021/07/23 01:02:39;;;;;;;0.20;0.20;;;;;;;;;;5016350;28;20042;-73
2021/07/23 01:05:06;;;;;;;0.13;0.13;;;;;;;;;;5016062;28;20133;-73
2021/07/23 01:07:32;;;;;;;0.10;0.10;;;;;;;;;;5015878;28;20092;-73
2021/07/23 01:10:01;;;;;;;2.10;1.20;;;;;;;;;;5015885;28;20096;-72
2021/07/23 01:12:29;;;;;;;0.30;0.30;;;;;;;;;;5016148;28;20122;-72
2021/07/23 01:14:56;;;;;;;0.32;0.32;;;;;;;;;;5015858;28;20085;-73
2021/07/23 01:17:22;;;;;;;0.32;0.32;;;;;;;;;;5016244;28;20045;-73
2021/07/23 01:19:52;;;;;;;0.43;0.43;;;;;;;;;;5016235;28;20038;-73
2021/07/23 01:22:21;;;;;;;0.30;0.30;;;;;;;;;;5015646;28;20034;-73
2021/07/23 01:24:48;;;;;;;0.85;0.82;;;;;;;;;;5015902;28;20034;-73
2021/07/23 01:27:15;;;;;;;0.47;0.47;;;;;;;;;;5015488;28;20468;-73
2021/07/23 01:29:41;;;;;;;0.50;0.50;;;;;;;;;;5015317;28;20053;-73
2021/07/23 01:32:08;;;;;;;0.82;0.82;;;;;;;;;;5015810;28;20041;-72
2021/07/23 01:34:34;;;;;;;2.40;0.38;;;;;;;;;;5015276;28;20034;-73
2021/07/23 01:37:00;;;;;;;0.70;0.70;;;;;;;;;;5015868;28;20038;-73
2021/07/23 01:39:26;;;;;;;0.50;0.50;;;;;;;;;;5015700;28;20481;-73
2021/07/23 01:41:52;;;;;;;0.20;0.20;;;;;;;;;;5015382;28;20041;-73
2021/07/23 01:44:19;;;;;;;0.55;0.55;;;;;;;;;;5015303;28;20045;-73
2021/07/23 01:46:45;;;;;;;0.75;0.68;;;;;;;;;;5015574;28;20048;-72
2021/07/23 01:49:11;;;;;;;2.03;0.63;;;;;;;;;;5015020;28;20456;-73
2021/07/23 01:51:37;;;;;;;0.20;0.20;;;;;;;;;;5015486;28;20048;-73
2021/07/23 01:54:03;;;;;;;0.30;0.30;;;;;;;;;;5015298;28;20034;-73
2021/07/23 01:56:29;;;;;;;0.40;0.40;;;;;;;;;;5015401;28;20037;-72
2021/07/23 01:58:56;;;;;;;0.60;0.60;;;;;;;;;;5015296;28;20049;-73
2021/07/23 02:01:22;;;;;;;0.55;0.55;;;;;;;;;;5015860;28;20401;-72
2021/07/23 02:03:48;;;;;;;0.43;0.43;;;;;;;;;;5015302;28;20128;-73
2021/07/23 02:06:15;;;;;;;0.38;0.38;;;;;;;;;;5014771;28;20382;-73
2021/07/23 02:08:41;;;;;;;0.20;0.20;;;;;;;;;;5014736;28;20095;-73
2021/07/23 02:11:08;;;;;;;0.40;0.40;;;;;;;;;;5015756;28;20504;-72
2021/07/23 02:13:34;;;;;;;0.30;0.30;;;;;;;;;;5014873;28;20054;-73
2021/07/23 02:16:03;;;;;;;0.50;0.47;;;;;;;;;;5015094;28;20082;-73
2021/07/23 02:18:29;;;;;;;5.68;0.95;;;;;;;;;;5014945;28;20073;-72
2021/07/23 02:20:55;;;;;;;0.65;0.63;;;;;;;;;;5015008;28;20120;-73
2021/07/23 02:23:21;;;;;;;0.50;0.45;;;;;;;;;;5029878;28;20125;-73
2021/07/23 02:25:48;;;;;;;0.55;0.55;;;;;;;;;;5014642;28;20037;-73
2021/07/23 02:28:14;;;;;;;0.60;0.60;;;;;;;;;;5014562;28;20046;-73
2021/07/23 02:30:40;;;;;;;0.93;0.63;;;;;;;;;;5015505;28;20046;-73
2021/07/23 02:33:06;;;;;;;0.47;0.47;;;;;;;;;;5014821;28;20042;-73
2021/07/23 02:35:32;;;;;;;0.47;0.30;;;;;;;;;;5014381;28;20129;-72
2021/07/23 02:37:58;;;;;;;0.52;0.52;;;;;;;;;;5014544;28;20050;-73
2021/07/23 02:40:24;;;;;;;0.73;0.73;;;;;;;;;;5014665;28;20099;-73
2021/07/23 02:42:50;;;;;;;0.43;0.43;;;;;;;;;;5014474;28;20374;-73
2021/07/23 02:45:17;;;;;;;0.57;0.57;;;;;;;;;;5014635;28;20046;-73
2021/07/23 02:47:43;;;;;;;1.45;0.70;;;;;;;;;;5014338;28;20041;-72
2021/07/23 02:50:09;;;;;;;0.20;0.20;;;;;;;;;;5014324;28;20401;-72
2021/07/23 02:52:36;;;;;;;0.30;0.30;;;;;;;;;;5014889;28;20046;-73
2021/07/23 02:55:03;;;;;;;0.50;0.50;;;;;;;;;;5014659;28;20041;-73
2021/07/23 02:57:29;;;;;;;0.65;0.65;;;;;;;;;;5014815;28;20042;-72
2021/07/23 02:59:55;;;;;;;0.40;0.40;;;;;;;;;;5015429;28;20046;-72
2021/07/23 03:02:21;;;;;;;0.30;0.30;;;;;;;;;;5014519;28;20037;-72
2021/07/23 03:04:47;;;;;;;0.93;0.82;;;;;;;;;;5014156;28;20509;-72
2021/07/23 03:07:13;;;;;;;0.82;0.82;;;;;;;;;;5014388;28;20117;-73
2021/07/23 03:09:40;;;;;;;0.50;0.50;;;;;;;;;;5014717;28;20069;-72
2021/07/23 03:12:06;;;;;;;0.30;0.30;;;;;;;;;;5017471;28;20552;-72
2021/07/23 03:14:32;;;;;;;0.63;0.57;;;;;;;;;;5018385;28;20057;-72
2021/07/23 03:16:58;;;;;;;0.50;0.50;;;;;;;;;;5018352;28;20038;-73
2021/07/23 03:19:24;;;;;;;0.38;0.38;;;;;;;;;;5018052;28;20460;-72
2021/07/23 03:21:53;;;;;;;0.20;0.20;;;;;;;;;;5018153;28;20041;-73
2021/07/23 03:24:20;;;;;;;0.68;0.68;;;;;;;;;;5017876;28;20049;-72
2021/07/23 03:26:46;;;;;;;0.75;0.75;;;;;;;;;;5017812;28;20073;-72
2021/07/23 03:29:12;;;;;;;0.30;0.30;;;;;;;;;;5018096;28;20046;-72
2021/07/23 03:31:38;;;;;;;0.82;0.82;;;;;;;;;;5018613;28;20050;-72
2021/07/23 03:34:04;;;;;;;0.35;0.35;;;;;;;;;;5017888;28;20516;-73
2021/07/23 03:36:30;;;;;;;0.32;0.32;;;;;;;;;;5018012;28;20052;-72
2021/07/23 03:38:57;;;;;;;0.40;0.40;;;;;;;;;;5017837;28;20040;-72
2021/07/23 03:41:23;;;;;;;0.43;0.43;;;;;;;;;;5018198;28;20075;-73
2021/07/23 03:43:49;;;;;;;0.30;0.30;;;;;;;;;;5017550;28;20120;-72
2021/07/23 03:46:15;;;;;;;0.32;0.32;;;;;;;;;;5017823;28;20099;-73
2021/07/23 03:48:41;;;;;;;0.68;0.68;;;;;;;;;;5017525;28;20119;-72
2021/07/23 03:51:07;;;;;;;0.10;0.10;;;;;;;;;;5017333;28;20054;-73
2021/07/23 03:53:33;;;;;;;0.40;0.40;;;;;;;;;;5017376;28;20037;-72
2021/07/23 03:56:03;;;;;;;0.30;0.30;;;;;;;;;;5017635;28;20045;-72
2021/07/23 03:58:29;;;;;;;0.10;0.10;;;;;;;;;;5017819;28;20038;-72
2021/07/23 04:00:56;;;;;;;0.20;0.20;;;;;;;;;;5018131;28;20046;-72
2021/07/23 04:03:22;;;;;;;0.30;0.30;;;;;;;;;;5017180;28;20041;-72
2021/07/23 04:05:48;;;;;;;0.47;0.47;;;;;;;;;;5017325;28;20037;-72
2021/07/23 04:08:14;;;;;;;0.40;0.40;;;;;;;;;;5016954;28;20133;-73
2021/07/23 04:10:40;;;;;;;0.20;0.20;;;;;;;;;;5018180;28;20060;-72
2021/07/23 04:13:06;;;;;;;0.32;0.32;;;;;;;;;;5017689;28;20053;-72
2021/07/23 04:15:32;;;;;;;0.40;0.40;;;;;;;;;;5017576;28;20061;-72
2021/07/23 04:17:58;;;;;;;3.00;0.55;;;;;;;;;;5017661;28;20080;-72
2021/07/23 04:20:25;;;;;;;0.45;0.45;;;;;;;;;;5017456;28;20042;-73
2021/07/23 04:22:51;;;;;;;0.38;0.38;;;;;;;;;;5016199;28;20045;-72
2021/07/23 04:25:17;;;;;;;0.52;0.52;;;;;;;;;;5017625;28;20045;-72
2021/07/23 04:27:43;;;;;;;0.20;0.20;;;;;;;;;;5017264;28;20041;-72
2021/07/23 04:30:09;;;;;;;0.32;0.32;;;;;;;;;;5017322;28;20054;-72
2021/07/23 04:32:35;;;;;;;0.30;0.30;;;;;;;;;;5017190;28;20057;-72
2021/07/23 04:35:01;;;;;;;0.32;0.32;;;;;;;;;;5016999;28;20481;-72
2021/07/23 04:37:27;;;;;;;0.52;0.52;;;;;;;;;;5017081;28;20068;-72
2021/07/23 04:39:54;;;;;;;0.47;0.47;;;;;;;;;;5017624;28;20042;-73
2021/07/23 04:42:20;;;;;;;0.30;0.30;;;;;;;;;;5017070;28;20042;-72
2021/07/23 04:44:46;;;;;;;0.45;0.45;;;;;;;;;;5017042;28;20476;-72
2021/07/23 04:47:12;;;;;;;1.00;0.85;;;;;;;;;;5016891;28;20554;-72
2021/07/23 04:49:38;;;;;;;0.40;0.40;;;;;;;;;;5017044;28;20481;-72
2021/07/23 04:52:04;;;;;;;0.32;0.32;;;;;;;;;;5017088;28;20117;-72
2021/07/23 04:54:30;;;;;;;0.30;0.30;;;;;;;;;;5016564;28;20046;-73
2021/07/23 04:56:58;;;;;;;0.10;0.10;;;;;;;;;;5017351;28;20091;-72
2021/07/23 04:59:24;;;;;;;0.40;0.40;;;;;;;;;;5016174;28;20049;-72
2021/07/23 05:01:50;;;;;;;0.30;0.30;;;;;;;;;;5016599;28;20084;-72
2021/07/23 05:04:17;;;;;;;0.68;0.68;;;;;;;;;;5016476;28;20046;-72
2021/07/23 05:06:43;;;;;;;0.40;0.40;;;;;;;;;;5016282;28;20038;-73
2021/07/23 05:09:09;;;;;;;0.40;0.40;;;;;;;;;;5016164;28;20523;-73
2021/07/23 05:11:35;;;;;;;0.40;0.40;;;;;;;;;;5016503;28;20125;-73
2021/07/23 05:14:02;;;;;;;0.28;0.28;;;;;;;;;;5015909;28;20083;-73
2021/07/23 05:16:28;;;;;;;0.10;0.10;;;;;;;;;;5016410;28;20042;-72
2021/07/23 05:18:54;;;;;;;0.20;0.20;;;;;;;;;;5015923;28;20485;-72
2021/07/23 05:21:20;;;;;;;0.30;0.30;;;;;;;;;;5015735;28;20045;-72
2021/07/23 05:23:46;;;;;;;4.93;0.45;;;;;;;;;;5016322;28;20041;-73
2021/07/23 05:26:13;;;;;;;0.60;0.60;;;;;;;;;;5016247;28;20038;-73
2021/07/23 05:28:39;;;;;;;0.55;0.55;;;;;;;;;;5016095;28;20050;-72
2021/07/23 05:31:06;;;;;;;0.47;0.47;;;;;;;;;;5016040;28;20049;-72
2021/07/23 05:33:32;;;;;;;0.30;0.20;;;;;;;;;;5015718;28;20091;-73
2021/07/23 05:35:58;;;;;;;0.17;0.17;;;;;;;;;;5015505;28;20092;-72
2021/07/23 05:38:24;;;;;;;0.63;0.45;;;;;;;;;;5015663;28;20050;-73
2021/07/23 05:40:50;;;;;;;0.22;0.22;;;;;;;;;;5015768;28;20046;-72
2021/07/23 05:43:17;;;;;;;0.38;0.38;;;;;;;;;;5016152;28;20069;-74
2021/07/23 05:45:44;;;;;;;0.20;0.20;;;;;;;;;;5015379;28;20465;-75
2021/07/23 05:48:10;;;;;;;0.10;0.10;;;;;;;;;;5013393;28;20068;-74
2021/07/23 05:50:36;;;;;;;1.70;0.55;;;;;;;;;;5012899;28;20553;-75
2021/07/23 05:53:02;;;;;;;0.20;0.20;;;;;;;;;;5024655;28;20132;-75
2021/07/23 05:55:28;;;;;;;0.20;0.20;;;;;;;;;;5034409;28;20133;-75
2021/07/23 05:57:58;;;;;;;0.20;0.20;;;;;;;;;;5034956;28;20560;-75
2021/07/23 06:00:27;;;;;;;0.50;0.50;;;;;;;;;;5035218;28;20103;-75
2021/07/23 06:03:03;;;;;;;0.63;0.63;;;;;;;;;;5034896;28;20091;-75
2021/07/23 06:05:29;;;;;;;0.57;0.40;;;;;;;;;;5034758;28;20072;-75
2021/07/23 06:07:55;;;;;;;0.20;0.20;;;;;;;;;;5034603;28;20095;-79
2021/07/23 06:10:21;;;;;;;0.20;0.20;;;;;;;;;;5033771;28;20053;-79
2021/07/23 06:12:47;;;;;;;0.70;0.70;;;;;;;;;;5033877;28;20041;-80
2021/07/23 06:15:13;;;;;;;0.20;0.20;;;;;;;;;;5030851;28;20144;-75
2021/07/23 06:17:39;;;;;;;0.30;0.30;;;;;;;;;;5026282;28;20072;-75
2021/07/23 06:20:06;;;;;;;0.45;0.45;;;;;;;;;;5030696;28;20049;-75
2021/07/23 06:22:32;;;;;;;0.30;0.30;;;;;;;;;;5034511;28;20041;-75
2021/07/23 06:24:58;;;;;;;0.65;0.65;;;;;;;;;;5032098;28;20033;-75
2021/07/23 06:27:25;;;;;;;0.20;0.20;;;;;;;;;;5032611;28;20033;-75
2021/07/23 06:29:53;;;;;;;0.47;0.40;;;;;;;;;;5033842;28;20046;-75
2021/07/23 06:32:20;;;;;;;0.20;0.20;;;;;;;;;;5034481;28;20041;-75
2021/07/23 06:34:47;;;;;;;0.30;0.30;;;;;;;;;;5034047;28;20033;-76
2021/07/23 06:37:13;;;;;;;0.30;0.30;;;;;;;;;;5034101;28;20099;-74
2021/07/23 06:39:39;;;;;;;0.28;0.28;;;;;;;;;;5034038;28;20125;-75
2021/07/23 06:42:07;;;;;;;0.25;0.25;;;;;;;;;;5034427;28;20045;-74
2021/07/23 06:44:36;;;;;;;0.10;0.10;;;;;;;;;;5034465;28;20045;-75
2021/07/23 06:47:03;;;;;;;0.20;0.20;;;;;;;;;;5024029;28;20412;-75
2021/07/23 06:49:29;;;;;;;0.20;0.20;;;;;;;;;;5034186;28;20041;-75
2021/07/23 06:51:55;;;;;;;0.30;0.30;;;;;;;;;;5034275;28;20088;-75
2021/07/23 06:54:21;;;;;;;0.25;0.25;;;;;;;;;;5034038;28;20045;-74
2021/07/23 06:56:50;;;;;;;0.30;0.30;;;;;;;;;;5034490;28;20049;-74
2021/07/23 06:59:16;;;;;;;0.20;0.20;;;;;;;;;;5034355;28;20037;-74
2021/07/23 07:01:42;;;;;;;0.20;0.20;;;;;;;;;;5034916;28;20103;-74
2021/07/23 07:04:08;;;;;;;0.10;0.10;;;;;;;;;;5034126;28;20041;-74
2021/07/23 07:06:34;;;;;;;0.22;0.22;;;;;;;;;;5034557;28;20046;-74
2021/07/23 07:09:00;;;;;;;0.10;0.10;;;;;;;;;;5034239;28;20056;-75
2021/07/23 07:11:26;;;;;;;0.20;0.20;;;;;;;;;;5034270;28;20052;-75
2021/07/23 07:13:52;;;;;;;0.30;0.30;;;;;;;;;;5033671;28;20088;-75
2021/07/23 07:16:19;;;;;;;0.30;0.30;;;;;;;;;;5033921;28;20084;-75
2021/07/23 07:18:45;;;;;;;0.30;0.30;;;;;;;;;;5034155;28;20045;-74
2021/07/23 07:21:13;;;;;;;0.52;0.40;;;;;;;;;;5033515;28;20083;-75
2021/07/23 07:23:40;;;;;;;0.75;0.75;;;;;;;;;;5033259;28;20044;-74
2021/07/23 07:26:06;;;;;;;0.35;0.35;;;;;;;;;;5032378;28;20037;-75
2021/07/23 07:28:32;;;;;;;0.20;0.20;;;;;;;;;;5031493;28;20099;-75
2021/07/23 07:30:58;;;;;;;0.20;0.20;;;;;;;;;;5031632;28;20090;-75
2021/07/23 07:33:24;;;;;;;0.17;0.17;;;;;;;;;;5033793;28;20523;-75
2021/07/23 07:35:51;;;;;;;0.30;0.30;;;;;;;;;;5033831;28;20126;-75
2021/07/23 07:38:17;;;;;;;0.30;0.30;;;;;;;;;;5033626;28;20037;-75
2021/07/23 07:40:44;;;;;;;0.40;0.22;;;;;;;;;;5033331;28;20044;-74
2021/07/23 07:43:10;;;;;;;0.50;0.50;;;;;;;;;;5033914;28;20089;-75
2021/07/23 07:45:36;;;;;;;0.30;0.30;;;;;;;;;;5033845;28;20185;-75
2021/07/23 07:48:03;;;;;;;0.25;0.25;;;;;;;;;;5033529;28;20457;-75
2021/07/23 07:50:29;;;;;;;0.50;0.50;;;;;;;;;;5033084;28;20120;-75
2021/07/23 07:52:56;;;;;;;0.30;0.30;;;;;;;;;;5034152;28;20064;-75
2021/07/23 07:55:22;;;;;;;3.40;0.50;;;;;;;;;;5033833;28;20042;-75
2021/07/23 07:57:48;;;;;;;0.85;0.57;;;;;;;;;;5035596;28;20076;-75
2021/07/23 08:00:14;;;;;;;0.38;0.38;;;;;;;;;;5037665;28;20079;-75
2021/07/23 08:02:41;;;;;;;0.40;0.40;;;;;;;;;;5037677;28;20049;-75
2021/07/23 08:05:07;;;;;;;0.70;0.70;;;;;;;;;;5037162;28;20092;-75
2021/07/23 08:07:34;;;;;;;0.38;0.38;;;;;;;;;;5037505;28;20045;-75
2021/07/23 08:10:03;;;;;;;1.23;0.68;;;;;;;;;;5036683;28;20037;-75
2021/07/23 08:12:33;;;;;;;0.40;0.40;;;;;;;;;;5037354;28;20501;-75
2021/07/23 08:14:59;;;;;;;0.30;0.30;;;;;;;;;;5037318;28;20050;-75
2021/07/23 08:17:28;;;;;;;0.95;0.95;;;;;;;;;;5036916;28;20477;-75
2021/07/23 08:19:56;;;;;;;2.78;1.15;;;;;;;;;;5036756;28;20167;-75
2021/07/23 08:22:22;;;;;;;0.63;0.60;;;;;;;;;;5037056;28;20034;-75
2021/07/23 08:24:48;;;;;;;0.80;0.73;;;;;;;;;;5037165;28;20072;-75
2021/07/23 08:27:18;;;;;;;0.45;0.45;;;;;;;;;;5037064;28;20116;-75
2021/07/23 08:29:44;;;;;;;2.00;0.50;;;;;;;;;;5037037;28;20555;-75
2021/07/23 08:32:11;;;;;;;0.80;0.75;;;;;;;;;;5037224;28;20045;-75
2021/07/23 08:34:38;;;;;;;0.50;0.50;;;;;;;;;;5036789;28;20030;-75
2021/07/23 08:37:04;;;;;;;0.55;0.55;;;;;;;;;;5036674;28;20068;-74
2021/07/23 08:39:31;;;;;;;0.88;0.75;;;;;;;;;;5037218;28;20067;-75
2021/07/23 08:41:57;;;;;;;0.70;0.70;;;;;;;;;;5036594;28;20045;-74
2021/07/23 08:44:25;;;;;;;0.85;0.57;;;;;;;;;;5037023;28;20468;-74
2021/07/23 08:46:52;;;;;;;0.22;0.22;;;;;;;;;;5036905;28;20037;-75
2021/07/23 08:49:19;;;;;;;0.60;0.60;;;;;;;;;;5036571;28;20080;-75
2021/07/23 08:51:49;;;;;;;1.17;0.93;;;;;;;;;;5036607;28;20037;-75
2021/07/23 08:54:15;;;;;;;0.68;0.65;;;;;;;;;;5036608;28;20093;-75
2021/07/23 08:56:48;;;;;;;0.82;0.82;;;;;;;;;;5036236;28;20072;-75
2021/07/23 08:59:14;;;;;;;1.15;1.05;;;;;;;;;;5036457;28;20069;-75
2021/07/23 09:01:56;;;;;;;0.68;0.68;;;;;;;;;;5036179;28;20492;-75
2021/07/23 09:04:36;;;;;;;1.45;1.33;;;;;;;;;;5035899;28;20029;-75
2021/07/23 09:07:29;;;;;;;0.85;0.85;;;;;;;;;;5036295;28;20037;-75
2021/07/23 09:09:56;;;;;;;0.73;0.73;;;;;;;;;;5035328;28;20045;-75
2021/07/23 09:12:22;;;;;;;0.70;0.52;;;;;;;;;;5035863;28;20129;-75
2021/07/23 09:14:48;;;;;;;0.75;0.75;;;;;;;;;;5035653;28;20045;-75
2021/07/23 09:17:15;;;;;;;1.45;1.35;;;;;;;;;;5035833;28;20037;-75
2021/07/23 09:19:41;;;;;;;1.85;0.70;;;;;;;;;;5036102;28;20061;-75
2021/07/23 09:22:07;;;;;;;1.30;1.20;;;;;;;;;;5035797;28;20037;-75
2021/07/23 09:24:52;;;;;;;0.45;0.45;;;;;;;;;;5035461;28;20046;-75
2021/07/23 09:27:34;;;;;;;0.40;0.40;;;;;;;;;;5035607;28;20048;-75
2021/07/23 09:30:06;;;;;;;0.98;0.98;;;;;;;;;;5035384;28;20041;-75
2021/07/23 09:32:32;;;;;;;1.25;1.13;;;;;;;;;;5035562;28;20037;-75
2021/07/23 09:35:14;;;;;;;1.15;1.02;;;;;;;;;;5035690;28;20044;-75
2021/07/23 09:37:57;;;;;;;1.38;0.75;;;;;;;;;;5035908;28;20045;-75
2021/07/23 09:40:23;;;;;;;0.40;0.40;;;;;;;;;;5036283;28;20069;-75
2021/07/23 09:42:57;;;;;;;0.35;0.35;;;;;;;;;;5035324;28;20033;-75
2021/07/23 09:45:27;;;;;;;2.28;1.58;;;;;;;;;;5035029;28;20191;-75
2021/07/23 09:47:54;;;;;;;0.68;0.68;;;;;;;;;;5034917;28;20041;-75
2021/07/23 09:50:21;;;;;;;0.98;0.93;;;;;;;;;;5035399;28;20057;-75
2021/07/23 09:52:48;;;;;;;0.90;0.90;;;;;;;;;;5035396;28;20041;-75
2021/07/23 09:55:14;;;;;;;0.63;0.63;;;;;;;;;;5035133;28;20095;-75
2021/07/23 09:57:44;;;;;;;0.68;0.68;;;;;;;;;;5035526;28;20119;-75
2021/07/23 10:00:12;;;;;;;1.75;1.55;;;;;;;;;;5035223;28;20045;-75
2021/07/23 10:02:43;;;;;;;1.35;0.73;;;;;;;;;;5035081;28;20045;-75
2021/07/23 10:05:13;;;;;;;0.50;0.50;;;;;;;;;;5034836;28;20042;-75
2021/07/23 10:07:39;;;;;;;0.82;0.82;;;;;;;;;;5034842;28;20489;-75
2021/07/23 10:10:07;;;;;;;0.57;0.57;;;;;;;;;;5034363;28;20472;-75
2021/07/23 10:12:36;;;;;;;1.08;0.70;;;;;;;;;;5035024;28;20086;-74
2021/07/23 10:15:03;;;;;;;0.60;0.60;;;;;;;;;;5034864;28;20052;-75
2021/07/23 10:17:29;;;;;;;0.40;0.40;;;;;;;;;;5035335;28;20049;-75
2021/07/23 10:19:57;;;;;;;0.63;0.60;;;;;;;;;;5034152;28;20500;-75
2021/07/23 10:22:26;;;;;;;1.33;0.50;;;;;;;;;;5033225;28;20040;-74
2021/07/23 10:24:52;;;;;;;1.05;0.95;;;;;;;;;;5035065;28;20037;-75
2021/07/23 10:27:18;;;;;;;0.80;0.80;;;;;;;;;;5034451;28;20492;-75
2021/07/23 10:29:48;;;;;;;0.95;0.88;;;;;;;;;;5029241;28;20041;-74
2021/07/23 10:32:23;;;;;;;0.40;0.40;;;;;;;;;;5033513;28;20047;-74
2021/07/23 10:34:49;;;;;;;0.40;0.40;;;;;;;;;;5034449;28;20037;-74
2021/07/23 10:37:30;;;;;;;0.40;0.40;;;;;;;;;;5034720;28;20045;-74
2021/07/23 10:40:08;;;;;;;2.83;0.52;;;;;;;;;;5035285;28;20043;-74
2021/07/23 10:42:35;;;;;;;4.13;2.10;;;;;;;;;;5034703;28;20087;-74
2021/07/23 10:45:03;;;;;;;0.80;0.80;;;;;;;;;;5034774;28;20496;-73
2021/07/23 10:47:36;;;;;;;1.02;1.02;;;;;;;;;;5034439;28;20069;-73
2021/07/23 10:50:03;;;;;;;1.17;1.08;;;;;;;;;;5034655;28;20049;-74
2021/07/23 10:52:36;;;;;;;6.28;1.58;;;;;;;;;;5034767;28;20037;-74
2021/07/23 10:55:11;;;;;;;1.50;0.93;;;;;;;;;;5034463;28;20048;-74
2021/07/23 10:57:37;;;;;;;0.93;0.68;;;;;;;;;;5032882;28;20037;-74
2021/07/23 11:00:04;;;;;;;0.68;0.68;;;;;;;;;;5032775;28;20052;-74
2021/07/23 11:02:30;;;;;;;0.82;0.82;;;;;;;;;;5034614;28;20068;-74
2021/07/23 11:05:05;;;;;;;1.05;1.05;;;;;;;;;;5034452;28;20042;-74
2021/07/23 11:07:31;;;;;;;0.95;0.95;;;;;;;;;;5033283;28;20041;-74
2021/07/23 11:09:57;;;;;;;0.47;0.47;;;;;;;;;;5032762;28;20041;-74
2021/07/23 11:12:36;;;;;;;0.63;0.63;;;;;;;;;;5033719;28;20481;-74
2021/07/23 11:15:03;;;;;;;0.55;0.55;;;;;;;;;;5033629;28;20527;-74
2021/07/23 11:17:30;;;;;;;0.68;0.68;;;;;;;;;;5034176;28;20048;-74
2021/07/23 11:20:03;;;;;;;0.50;0.50;;;;;;;;;;5034428;28;20168;-74
2021/07/23 11:22:33;;;;;;;0.68;0.68;;;;;;;;;;5034393;28;20095;-74
2021/07/23 11:25:01;;;;;;;1.75;0.77;;;;;;;;;;5034096;28;20041;-74
2021/07/23 11:27:28;;;;;;;0.50;0.50;;;;;;;;;;5033994;28;20497;-74
2021/07/23 11:29:55;;;;;;;0.70;0.70;;;;;;;;;;5033435;28;20041;-74
2021/07/23 11:32:22;;;;;;;0.70;0.68;;;;;;;;;;5035173;28;20103;-74
2021/07/23 11:34:49;;;;;;;0.90;0.90;;;;;;;;;;5037552;28;20049;-74
2021/07/23 11:37:16;;;;;;;0.40;0.40;;;;;;;;;;5037821;28;20068;-74
2021/07/23 11:39:52;;;;;;;0.75;0.75;;;;;;;;;;5038332;28;20045;-74
2021/07/23 11:42:18;;;;;;;0.50;0.50;;;;;;;;;;5037410;28;20033;-74
2021/07/23 11:44:54;;;;;;;0.50;0.50;;;;;;;;;;5037584;28;20038;-74
2021/07/23 11:47:27;;;;;;;0.50;0.50;;;;;;;;;;5037831;28;20041;-74
2021/07/23 11:49:53;;;;;;;0.40;0.40;;;;;;;;;;5037042;28;20546;-74
2021/07/23 11:52:20;;;;;;;0.40;0.40;;;;;;;;;;5037240;28;20041;-74
2021/07/23 11:54:48;;;;;;;0.88;0.88;;;;;;;;;;5037180;28;20042;-74
2021/07/23 11:57:14;;;;;;;0.75;0.75;;;;;;;;;;5037058;28;20033;-74
2021/07/23 11:59:40;;;;;;;0.70;0.70;;;;;;;;;;5037382;28;20045;-74
2021/07/23 12:02:10;;;;;;;0.63;0.63;;;;;;;;;;5037302;28;20076;-74
2021/07/23 12:04:41;;;;;;;0.97;0.97;;;;;;;;;;5026615;28;20048;-74
2021/07/23 12:07:07;;;;;;;0.35;0.35;;;;;;;;;;5033313;28;20260;-74
2021/07/23 12:09:34;;;;;;;0.32;0.32;;;;;;;;;;5033917;28;20056;-73
2021/07/23 12:12:00;;;;;;;1.08;1.00;;;;;;;;;;5021566;28;20040;-74
2021/07/23 12:14:26;;;;;;;1.80;1.13;;;;;;;;;;5024176;28;20065;-74
2021/07/23 12:16:53;;;;;;;0.77;0.77;;;;;;;;;;5025554;28;20037;-73
2021/07/23 12:19:19;;;;;;;0.85;0.80;;;;;;;;;;5026737;28;20135;-73
2021/07/23 12:21:46;;;;;;;0.65;0.65;;;;;;;;;;5025445;28;20046;-73
2021/07/23 12:24:12;;;;;;;2.00;1.80;;;;;;;;;;5024852;28;20095;-73
2021/07/23 12:26:40;;;;;;;1.15;1.05;;;;;;;;;;5026533;28;20067;-74
2021/07/23 12:29:07;;;;;;;0.68;0.68;;;;;;;;;;5025473;28;20045;-73
2021/07/23 12:31:34;;;;;;;0.40;0.40;;;;;;;;;;5024922;28;20065;-73
2021/07/23 12:34:01;;;;;;;1.30;0.98;;;;;;;;;;5024438;28;20150;-73
2021/07/23 12:36:27;;;;;;;0.80;0.80;;;;;;;;;;5025084;28;20041;-73
2021/07/23 12:39:00;;;;;;;0.95;0.95;;;;;;;;;;5015729;28;20578;-73
2021/07/23 12:41:26;;;;;;;0.40;0.40;;;;;;;;;;5015553;28;20034;-73
2021/07/23 12:44:05;;;;;;;0.77;0.77;;;;;;;;;;5015862;28;20042;-73
2021/07/23 12:46:32;;;;;;;0.55;0.55;;;;;;;;;;5016883;28;20076;-73
2021/07/23 12:49:11;;;;;;;0.50;0.50;;;;;;;;;;5016362;28;20511;-73
2021/07/23 12:51:38;;;;;;;0.80;0.80;;;;;;;;;;5016863;28;20046;-73
2021/07/23 12:54:04;;;;;;;1.23;1.23;;;;;;;;;;5016748;28;20128;-73
2021/07/23 12:56:31;;;;;;;4.28;1.42;;;;;;;;;;5016450;28;20042;-73
2021/07/23 12:58:58;;;;;;;0.77;0.77;;;;;;;;;;5016310;28;20038;-73
2021/07/23 13:01:24;;;;;;;0.98;0.98;;;;;;;;;;5021379;28;20075;-73
2021/07/23 13:03:51;;;;;;;0.65;0.65;;;;;;;;;;5034670;28;20041;-73
2021/07/23 13:06:19;;;;;;;0.50;0.50;;;;;;;;;;5028590;28;20033;-73
2021/07/23 13:08:45;;;;;;;1.65;0.98;;;;;;;;;;5015593;28;20038;-73
2021/07/23 13:11:12;;;;;;;0.98;0.98;;;;;;;;;;5016385;28;20046;-73
2021/07/23 13:13:40;;;;;;;2.22;1.70;;;;;;;;;;5016161;28;20037;-73
2021/07/23 13:16:07;;;;;;;0.52;0.52;;;;;;;;;;5015556;28;20061;-73
2021/07/23 13:18:33;;;;;;;0.47;0.47;;;;;;;;;;5018058;28;20470;-73
2021/07/23 13:21:00;;;;;;;0.43;0.43;;;;;;;;;;5031498;28;20088;-73
2021/07/23 13:23:27;;;;;;;1.48;0.95;;;;;;;;;;5035537;28;20037;-73
2021/07/23 13:25:54;;;;;;;0.60;0.60;;;;;;;;;;5035506;28;20132;-73
2021/07/23 13:28:21;;;;;;;0.60;0.60;;;;;;;;;;5035089;28;20037;-73
2021/07/23 13:30:47;;;;;;;0.90;0.90;;;;;;;;;;5035397;28;20046;-72
2021/07/23 13:33:13;;;;;;;0.52;0.52;;;;;;;;;;5034771;28;20120;-72
2021/07/23 13:35:39;;;;;;;0.43;0.43;;;;;;;;;;5023203;28;20087;-73
2021/07/23 13:38:10;;;;;;;1.40;1.30;;;;;;;;;;5032203;28;20041;-72
2021/07/23 13:40:37;;;;;;;0.90;0.75;;;;;;;;;;5034501;28;20033;-73
2021/07/23 13:43:04;;;;;;;1.15;0.98;;;;;;;;;;5034938;28;20182;-72
2021/07/23 13:45:34;;;;;;;1.58;0.82;;;;;;;;;;5033321;28;20044;-73
2021/07/23 13:48:02;;;;;;;4.28;1.05;;;;;;;;;;5034405;28;20041;-72
2021/07/23 13:50:28;;;;;;;1.05;1.05;;;;;;;;;;5034484;28;20042;-72
2021/07/23 13:52:54;;;;;;;0.40;0.40;;;;;;;;;;5034050;28;20041;-72
2021/07/23 13:55:20;;;;;;;0.52;0.52;;;;;;;;;;5034370;28;20520;-72
2021/07/23 13:57:49;;;;;;;0.90;0.90;;;;;;;;;;5034680;28;20041;-73
2021/07/23 14:00:16;;;;;;;0.93;0.73;;;;;;;;;;5034364;28;20144;-73
2021/07/23 14:02:42;;;;;;;0.88;0.88;;;;;;;;;;5034701;28;20095;-73
2021/07/23 14:05:08;;;;;;;0.57;0.52;;;;;;;;;;5034335;28;20488;-73
2021/07/23 14:07:35;;;;;;;0.65;0.65;;;;;;;;;;5034646;28;20510;-73
2021/07/23 14:10:04;;;;;;;1.00;1.00;;;;;;;;;;5033768;28;20045;-73
2021/07/23 14:12:31;;;;;;;0.77;0.77;;;;;;;;;;5033355;28;20492;-72
2021/07/23 14:14:57;;;;;;;0.80;0.80;;;;;;;;;;5033799;28;20053;-73
2021/07/23 14:17:23;;;;;;;0.55;0.55;;;;;;;;;;5034636;28;20041;-73
2021/07/23 14:19:49;;;;;;;1.58;1.15;;;;;;;;;;5034938;28;20049;-73
2021/07/23 14:22:16;;;;;;;0.88;0.88;;;;;;;;;;5034478;28;20489;-73
2021/07/23 14:24:42;;;;;;;0.63;0.63;;;;;;;;;;5034516;28;20034;-73
2021/07/23 14:27:08;;;;;;;0.47;0.47;;;;;;;;;;5034486;28;20041;-73
2021/07/23 14:29:34;;;;;;;1.52;0.77;;;;;;;;;;5034445;28;20049;-73
2021/07/23 14:32:01;;;;;;;1.70;1.10;;;;;;;;;;5034026;28;20408;-73
2021/07/23 14:34:27;;;;;;;0.80;0.80;;;;;;;;;;5025357;28;20041;-73
2021/07/23 14:36:53;;;;;;;0.50;0.50;;;;;;;;;;5017682;28;20030;-73
2021/07/23 14:39:20;;;;;;;1.83;1.63;;;;;;;;;;5022096;28;20073;-73
2021/07/23 14:41:46;;;;;;;1.63;1.17;;;;;;;;;;5023542;28;20044;-73
2021/07/23 14:44:12;;;;;;;1.02;0.93;;;;;;;;;;5021867;28;20049;-73